createdAt,value
2023-03-17T00:01:38.504Z,96910.78
2023-03-17T00:04:05.025Z,96909.34
2023-03-17T00:06:31.472Z,96908.09
2023-03-17T00:08:57.888Z,96912.03
2023-03-17T00:11:24.276Z,96903.78
2023-03-17T00:13:50.635Z,96898.19
2023-03-17T00:16:17.099Z,96895.94
2023-03-17T00:18:43.567Z,96897.97
2023-03-17T00:21:09.996Z,96894.28
2023-03-17T00:23:36.435Z,96904.56
2023-03-17T00:26:02.841Z,96899.22
2023-03-17T00:28:29.230Z,96908.50
2023-03-17T00:30:55.618Z,96906.22
2023-03-17T00:33:22.032Z,96903.34
2023-03-17T00:35:48.472Z,96905.81
2023-03-17T00:38:14.839Z,96911.41
2023-03-17T00:40:41.181Z,96913.25
2023-03-17T00:43:07.526Z,96911.41
2023-03-17T00:45:33.901Z,96916.75
2023-03-17T00:48:00.252Z,96908.91
2023-03-17T00:50:26.647Z,96896.94
2023-03-17T00:52:53.071Z,96897.97
2023-03-17T00:55:19.533Z,96896.31
2023-03-17T00:57:45.845Z,96907.91
2023-03-17T01:00:12.234Z,96894.25
2023-03-17T01:02:38.622Z,96894.69
2023-03-17T01:05:06.753Z,96885.19
2023-03-17T01:07:33.464Z,96884.34
2023-03-17T01:09:59.929Z,96894.25
2023-03-17T01:12:26.292Z,96890.53
2023-03-17T01:14:52.701Z,96893.03
2023-03-17T01:17:19.142Z,96890.69
2023-03-17T01:19:45.542Z,96881.22
2023-03-17T01:22:11.945Z,96869.88
2023-03-17T01:24:38.414Z,96863.69
2023-03-17T01:27:04.781Z,96868.63
2023-03-17T01:29:31.221Z,96873.97
2023-03-17T01:31:57.605Z,96869.84
2023-03-17T01:34:24.004Z,96873.16
2023-03-17T01:36:50.362Z,96861.19
2023-03-17T01:39:16.829Z,96860.16
2023-03-17T01:41:43.145Z,96857.06
2023-03-17T01:44:09.584Z,96858.06
2023-03-17T01:46:35.950Z,96845.72
2023-03-17T01:49:02.337Z,96846.75
2023-03-17T01:51:28.744Z,96851.28
2023-03-17T01:53:55.224Z,96849.22
2023-03-17T01:56:21.638Z,96843.47
2023-03-17T01:58:48.034Z,96839.94
2023-03-17T02:01:14.543Z,96832.31
2023-03-17T02:03:40.913Z,96831.88
2023-03-17T02:06:07.362Z,96834.13
2023-03-17T02:08:33.725Z,96836.84
2023-03-17T02:11:00.178Z,96835.59
2023-03-17T02:13:26.556Z,96831.47
2023-03-17T02:15:52.938Z,96833.34
2023-03-17T02:18:19.304Z,96828.78
2023-03-17T02:20:45.671Z,96828.81
2023-03-17T02:23:12.016Z,96823.84
2023-03-17T02:25:38.436Z,96825.28
2023-03-17T02:28:04.809Z,96818.69
2023-03-17T02:30:31.421Z,96811.88
2023-03-17T02:32:57.959Z,96811.88
2023-03-17T02:35:24.397Z,96802.59
2023-03-17T02:37:50.802Z,96798.69
2023-03-17T02:40:17.185Z,96793.31
2023-03-17T02:42:43.565Z,96794.75
2023-03-17T02:45:09.980Z,96800.34
2023-03-17T02:47:36.388Z,96794.13
2023-03-17T02:50:02.866Z,96786.72
2023-03-17T02:52:29.307Z,96789.59
2023-03-17T02:54:55.736Z,96779.69
2023-03-17T02:57:22.091Z,96791.44
2023-03-17T02:59:48.529Z,96788.16
2023-03-17T03:02:14.905Z,96777.44
2023-03-17T03:04:41.350Z,96790.00
2023-03-17T03:07:07.731Z,96793.94
2023-03-17T03:09:34.163Z,96796.19
2023-03-17T03:12:00.606Z,96792.47
2023-03-17T03:14:26.984Z,96790.63
2023-03-17T03:16:53.358Z,96791.03
2023-03-17T03:19:19.795Z,96791.03
2023-03-17T03:21:46.232Z,96790.00
2023-03-17T03:24:12.762Z,96778.22
2023-03-17T03:26:39.156Z,96789.38
2023-03-17T03:29:05.599Z,96791.84
2023-03-17T03:31:32.191Z,96790.00
2023-03-17T03:33:58.649Z,96797.84
2023-03-17T03:36:25.005Z,96801.75
2023-03-17T03:38:51.396Z,96800.09
2023-03-17T03:41:17.769Z,96801.53
2023-03-17T03:43:45.338Z,96800.91
2023-03-17T03:46:11.774Z,96798.03
2023-03-17T03:48:38.130Z,96783.19
2023-03-17T03:51:04.492Z,96786.50
2023-03-17T03:53:32.148Z,96786.50
2023-03-17T03:55:58.523Z,96794.53
2023-03-17T03:58:24.892Z,96793.91
2023-03-17T04:00:51.308Z,96801.31
2023-03-17T04:03:17.711Z,96799.25
2023-03-17T04:05:44.129Z,96805.22
2023-03-17T04:08:10.569Z,96811.41
2023-03-17T04:10:37.125Z,96813.47
2023-03-17T04:13:03.532Z,96809.78
2023-03-17T04:15:29.872Z,96820.69
2023-03-17T04:17:56.246Z,96822.13
2023-03-17T04:20:22.633Z,96821.28
2023-03-17T04:22:49.000Z,96814.50
2023-03-17T04:25:15.422Z,96812.00
2023-03-17T04:27:41.803Z,96816.53
2023-03-17T04:30:08.249Z,96808.91
2023-03-17T04:32:34.687Z,96808.91
2023-03-17T04:35:01.118Z,96810.97
2023-03-17T04:37:27.542Z,96816.50
2023-03-17T04:39:53.955Z,96810.34
2023-03-17T04:42:20.300Z,96806.22
2023-03-17T04:44:46.664Z,96794.28
2023-03-17T04:47:13.068Z,96795.31
2023-03-17T04:49:39.451Z,96789.34
2023-03-17T04:52:05.857Z,96787.28
2023-03-17T04:54:32.407Z,96783.78
2023-03-17T04:56:58.758Z,96785.63
2023-03-17T04:59:25.162Z,96782.31
2023-03-17T05:01:51.584Z,96776.31
2023-03-17T05:04:30.724Z,96779.41
2023-03-17T05:06:58.205Z,96787.84
2023-03-17T05:09:24.692Z,96789.28
2023-03-17T05:11:51.100Z,96794.44
2023-03-17T05:14:17.443Z,96794.03
2023-03-17T05:16:43.853Z,96798.97
2023-03-17T05:19:10.321Z,96801.88
2023-03-17T05:21:36.667Z,96807.84
2023-03-17T05:24:03.086Z,96811.50
2023-03-17T05:26:29.466Z,96816.25
2023-03-17T05:28:55.913Z,96813.00
2023-03-17T05:31:22.394Z,96808.88
2023-03-17T05:33:48.807Z,96815.66
2023-03-17T05:36:15.131Z,96815.06
2023-03-17T05:38:41.480Z,96814.22
2023-03-17T05:41:07.892Z,96809.66
2023-03-17T05:43:34.328Z,96810.31
2023-03-17T05:46:00.860Z,96802.28
2023-03-17T05:48:27.284Z,96809.25
2023-03-17T05:50:53.661Z,96810.09
2023-03-17T05:53:20.035Z,96812.38
2023-03-17T05:55:46.507Z,96806.41
2023-03-17T05:58:12.890Z,96807.44
2023-03-17T06:00:39.251Z,96811.56
2023-03-17T06:03:05.595Z,96810.97
2023-03-17T06:05:31.985Z,96808.31
2023-03-17T06:07:58.316Z,96817.97
2023-03-17T06:10:24.739Z,96825.59
2023-03-17T06:12:51.141Z,96828.28
2023-03-17T06:15:17.574Z,96840.03
2023-03-17T06:17:43.973Z,96826.22
2023-03-17T06:20:10.334Z,96822.50
2023-03-17T06:22:36.732Z,96820.25
2023-03-17T06:25:03.180Z,96812.41
2023-03-17T06:27:29.604Z,96820.44
2023-03-17T06:29:55.997Z,96816.53
2023-03-17T06:32:22.427Z,96814.88
2023-03-17T06:34:48.968Z,96809.31
2023-03-17T06:37:15.446Z,96810.78
2023-03-17T06:39:41.984Z,96811.22
2023-03-17T06:42:08.348Z,96815.34
2023-03-17T06:44:34.783Z,96811.81
2023-03-17T06:47:01.177Z,96815.13
2023-03-17T06:49:27.550Z,96813.47
2023-03-17T06:51:53.958Z,96830.16
2023-03-17T06:54:20.364Z,96829.97
2023-03-17T06:56:46.872Z,96839.66
2023-03-17T06:59:15.623Z,96848.31
2023-03-17T07:01:42.172Z,96851.59
2023-03-17T07:04:08.667Z,96848.53
2023-03-17T07:06:35.099Z,96848.72
2023-03-17T07:09:02.364Z,96850.38
2023-03-17T07:11:28.877Z,96841.72
2023-03-17T07:13:55.300Z,96847.28
2023-03-17T07:16:21.776Z,96851.22
2023-03-17T07:18:48.172Z,96851.59
2023-03-17T07:21:14.509Z,96849.56
2023-03-17T07:23:40.873Z,96869.56
2023-03-17T07:26:07.315Z,96868.16
2023-03-17T07:28:33.777Z,96869.34
2023-03-17T07:31:00.262Z,96864.41
2023-03-17T07:33:26.668Z,96866.69
2023-03-17T07:35:53.250Z,96861.97
2023-03-17T07:38:19.710Z,96852.69
2023-03-17T07:40:46.105Z,96861.13
2023-03-17T07:43:12.504Z,96859.09
2023-03-17T07:45:38.913Z,96852.50
2023-03-17T07:48:05.418Z,96858.28
2023-03-17T07:50:31.838Z,96851.25
2023-03-17T07:52:58.214Z,96851.91
2023-03-17T07:55:24.673Z,96851.28
2023-03-17T07:57:51.138Z,96841.78
2023-03-17T08:00:17.575Z,96842.81
2023-03-17T08:02:44.006Z,96847.56
2023-03-17T08:05:10.641Z,96851.91
2023-03-17T08:07:37.059Z,96859.13
2023-03-17T08:10:03.435Z,96860.56
2023-03-17T08:12:29.865Z,96856.66
2023-03-17T08:14:56.236Z,96853.34
2023-03-17T08:17:22.610Z,96857.91
2023-03-17T08:19:49.008Z,96853.56
2023-03-17T08:22:15.474Z,96851.28
2023-03-17T08:24:41.925Z,96859.34
2023-03-17T08:27:08.379Z,96863.47
2023-03-17T08:29:34.740Z,96863.47
2023-03-17T08:32:01.109Z,96852.94
2023-03-17T08:34:27.563Z,96863.06
2023-03-17T08:36:53.939Z,96856.69
2023-03-17T08:39:20.334Z,96850.09
2023-03-17T08:41:46.732Z,96859.56
2023-03-17T08:44:13.084Z,96856.69
2023-03-17T08:46:39.500Z,96858.94
2023-03-17T08:49:05.993Z,96860.44
2023-03-17T08:51:32.416Z,96848.03
2023-03-17T08:53:58.828Z,96851.13
2023-03-17T08:56:25.217Z,96849.84
2023-03-17T08:58:51.624Z,96840.56
2023-03-17T09:01:17.999Z,96837.03
2023-03-17T09:03:44.424Z,96837.88
2023-03-17T09:06:10.874Z,96828.78
2023-03-17T09:08:37.310Z,96818.25
2023-03-17T09:11:03.954Z,96813.06
2023-03-17T09:13:30.355Z,96813.88
2023-03-17T09:15:56.763Z,96816.44
2023-03-17T09:18:23.182Z,96811.06
2023-03-17T09:20:49.673Z,96813.31
2023-03-17T09:23:16.039Z,96815.19
2023-03-17T09:25:42.400Z,96816.44
2023-03-17T09:28:08.806Z,96813.75
2023-03-17T09:30:35.215Z,96815.81
2023-03-17T09:33:01.689Z,96814.56
2023-03-17T09:35:28.284Z,96811.28
2023-03-17T09:37:54.651Z,96813.75
2023-03-17T09:40:21.128Z,96813.53
2023-03-17T09:42:47.625Z,96810.22
2023-03-17T09:45:14.035Z,96811.66
2023-03-17T09:47:42.655Z,96810.63
2023-03-17T09:50:09.271Z,96810.59
2023-03-17T09:52:35.635Z,96809.78
2023-03-17T09:55:02.032Z,96810.38
2023-03-17T09:57:28.374Z,96814.09
2023-03-17T09:59:54.884Z,96811.19
2023-03-17T10:02:21.325Z,96807.50
2023-03-17T10:04:47.768Z,96815.53
2023-03-17T10:07:14.232Z,96810.59
2023-03-17T10:09:40.701Z,96806.09
2023-03-17T10:12:07.068Z,96813.75
2023-03-17T10:14:33.512Z,96806.09
2023-03-17T10:17:00.021Z,96816.22
2023-03-17T10:19:26.396Z,96822.00
2023-03-17T10:21:52.781Z,96823.03
2023-03-17T10:24:19.199Z,96821.59
2023-03-17T10:26:45.598Z,96830.06
2023-03-17T10:29:11.962Z,96824.50
2023-03-17T10:31:38.503Z,96828.63
2023-03-17T10:34:04.959Z,96835.63
2023-03-17T10:36:31.388Z,96831.50
2023-03-17T10:38:57.834Z,96833.56
2023-03-17T10:41:24.214Z,96831.91
2023-03-17T10:43:50.735Z,96824.28
2023-03-17T10:46:17.175Z,96818.06
2023-03-17T10:48:43.648Z,96818.44
2023-03-17T10:51:10.154Z,96821.72
2023-03-17T10:53:36.543Z,96833.47
2023-03-17T10:56:02.952Z,96825.63
2023-03-17T10:58:29.347Z,96823.53
2023-03-17T11:00:55.815Z,96825.72
2023-03-17T11:03:22.291Z,96824.47
2023-03-17T11:05:48.701Z,96807.31
2023-03-17T11:08:15.054Z,96803.09
2023-03-17T11:10:41.468Z,96803.94
2023-03-17T11:13:07.821Z,96801.22
2023-03-17T11:15:34.200Z,96799.94
2023-03-17T11:18:00.558Z,96786.09
2023-03-17T11:20:26.932Z,96786.88
2023-03-17T11:22:53.293Z,96777.53
2023-03-17T11:25:22.419Z,96777.78
2023-03-17T11:27:48.761Z,96779.25
2023-03-17T11:30:15.256Z,96777.41
2023-03-17T11:32:41.708Z,96772.09
2023-03-17T11:35:08.156Z,96775.56
2023-03-17T11:37:34.507Z,96771.41
2023-03-17T11:40:02.197Z,96764.97
2023-03-17T11:42:28.631Z,96763.66
2023-03-17T11:44:54.983Z,96768.81
2023-03-17T11:47:21.364Z,96765.69
2023-03-17T11:49:47.802Z,96767.72
2023-03-17T11:52:14.159Z,96775.97
2023-03-17T11:54:40.539Z,96764.09
2023-03-17T11:57:06.935Z,96754.94
2023-03-17T11:59:33.370Z,96761.84
2023-03-17T12:01:59.739Z,96760.28
2023-03-17T12:04:26.172Z,96756.84
2023-03-17T12:06:52.620Z,96751.59
2023-03-17T12:09:18.953Z,96753.47
2023-03-17T12:11:45.340Z,96752.53
2023-03-17T12:14:11.782Z,96744.56
2023-03-17T12:16:38.172Z,96742.09
2023-03-17T12:19:04.531Z,96739.81
2023-03-17T12:21:30.923Z,96729.44
2023-03-17T12:23:57.277Z,96738.84
2023-03-17T12:26:23.735Z,96735.34
2023-03-17T12:28:50.256Z,96743.59
2023-03-17T12:31:16.652Z,96739.75
2023-03-17T12:33:43.207Z,96738.81
2023-03-17T12:36:09.653Z,96724.84
2023-03-17T12:38:36.094Z,96725.72
2023-03-17T12:41:02.522Z,96720.63
2023-03-17T12:43:28.956Z,96728.38
2023-03-17T12:45:55.345Z,96723.13
2023-03-17T12:48:21.762Z,96719.81
2023-03-17T12:50:48.159Z,96730.84
2023-03-17T12:53:14.601Z,96741.19
2023-03-17T12:55:41.005Z,96734.97
2023-03-17T12:58:07.388Z,96732.56
2023-03-17T13:00:33.730Z,96737.66
2023-03-17T13:03:00.109Z,96731.22
2023-03-17T13:05:26.491Z,96719.88
2023-03-17T13:07:52.878Z,96709.19
2023-03-17T13:10:19.285Z,96719.09
2023-03-17T13:12:45.721Z,96711.00
2023-03-17T13:15:12.070Z,96704.75
2023-03-17T13:17:38.477Z,96701.38
2023-03-17T13:20:04.846Z,96706.31
2023-03-17T13:22:31.198Z,96707.25
2023-03-17T13:24:57.601Z,96693.84
2023-03-17T13:27:23.953Z,96675.25
2023-03-17T13:29:50.338Z,96672.41
2023-03-17T13:32:16.720Z,96680.97
2023-03-17T13:34:43.204Z,96686.69
2023-03-17T13:37:09.605Z,96681.06
2023-03-17T13:39:35.958Z,96667.16
2023-03-17T13:42:08.764Z,96661.75
2023-03-17T13:44:43.738Z,96671.13
2023-03-17T13:47:10.136Z,96661.63
2023-03-17T13:49:36.612Z,96651.25
2023-03-17T13:52:03.044Z,96641.94
2023-03-17T13:54:29.433Z,96639.00
2023-03-17T13:56:55.800Z,96632.13
2023-03-17T13:59:22.159Z,96618.38
2023-03-17T14:01:48.553Z,96616.09
2023-03-17T14:04:15.063Z,96610.22
2023-03-17T14:06:41.473Z,96617.34
2023-03-17T14:09:07.944Z,96633.44
2023-03-17T14:11:34.322Z,96639.91
2023-03-17T14:14:00.720Z,96646.88
2023-03-17T14:16:27.198Z,96634.91
2023-03-17T14:18:53.574Z,96634.28
2023-03-17T14:21:19.953Z,96638.16
2023-03-17T14:23:46.352Z,96628.28
2023-03-17T14:26:12.798Z,96630.59
2023-03-17T14:28:39.143Z,96631.16
2023-03-17T14:31:05.546Z,96634.63
2023-03-17T14:33:31.965Z,96630.78
2023-03-17T14:35:58.425Z,96624.19
2023-03-17T14:38:24.866Z,96624.88
2023-03-17T14:40:51.462Z,96621.94
2023-03-17T14:43:17.867Z,96606.88
2023-03-17T14:45:45.417Z,96605.38
2023-03-17T14:48:11.886Z,96609.63
2023-03-17T14:50:38.237Z,96602.13
2023-03-17T14:53:04.650Z,96604.38
2023-03-17T14:55:31.168Z,96587.94
2023-03-17T14:57:57.613Z,96594.25
2023-03-17T15:00:23.956Z,96590.06
2023-03-17T15:02:50.324Z,96578.31
2023-03-17T15:05:16.746Z,96577.81
2023-03-17T15:07:43.181Z,96564.94
2023-03-17T15:10:09.573Z,96557.97
2023-03-17T15:12:35.912Z,96553.16
2023-03-17T15:15:02.250Z,96556.59
2023-03-17T15:17:28.735Z,96555.22
2023-03-17T15:19:55.121Z,96558.38
2023-03-17T15:22:21.485Z,96552.56
2023-03-17T15:24:47.867Z,96550.63
2023-03-17T15:27:14.277Z,96553.72
2023-03-17T15:29:40.634Z,96542.13
2023-03-17T15:32:06.972Z,96551.41
2023-03-17T15:34:33.332Z,96545.25
2023-03-17T15:36:59.703Z,96544.03
2023-03-17T15:39:26.076Z,96545.97
2023-03-17T15:41:52.404Z,96543.69
2023-03-17T15:44:18.800Z,96541.06
2023-03-17T15:46:45.201Z,96538.19
2023-03-17T15:49:11.777Z,96534.34
2023-03-17T15:51:38.234Z,96528.16
2023-03-17T15:54:04.595Z,96525.78
2023-03-17T15:56:30.971Z,96523.31
2023-03-17T15:58:57.355Z,96514.88
2023-03-17T16:01:25.802Z,96515.63
2023-03-17T16:03:54.147Z,96518.59
2023-03-17T16:06:20.564Z,96519.66
2023-03-17T16:08:46.991Z,96520.22
2023-03-17T16:11:13.428Z,96513.19
2023-03-17T16:13:39.852Z,96526.97
2023-03-17T16:16:06.292Z,96521.03
2023-03-17T16:18:32.680Z,96517.13
2023-03-17T16:20:59.218Z,96523.66
2023-03-17T16:23:25.640Z,96522.66
2023-03-17T16:25:53.947Z,96520.84
2023-03-17T16:28:21.904Z,96520.78
2023-03-17T16:30:48.304Z,96525.78
2023-03-17T16:33:14.714Z,96521.81
2023-03-17T16:35:41.114Z,96522.56
2023-03-17T16:38:07.729Z,96528.44
2023-03-17T16:40:34.227Z,96517.97
2023-03-17T16:43:00.785Z,96521.75
2023-03-17T16:45:27.137Z,96520.31
2023-03-17T16:47:53.474Z,96515.88
2023-03-17T16:50:19.857Z,96518.88
2023-03-17T16:52:46.276Z,96529.56
2023-03-17T16:55:12.656Z,96526.16
2023-03-17T16:57:39.002Z,96526.78
2023-03-17T17:00:05.399Z,96524.25
2023-03-17T17:02:31.842Z,96531.09
2023-03-17T17:04:58.199Z,96521.31
2023-03-17T17:07:24.549Z,96532.28
2023-03-17T17:09:50.948Z,96529.69
2023-03-17T17:12:17.361Z,96528.88
2023-03-17T17:14:43.742Z,96517.28
2023-03-17T17:17:10.161Z,96519.75
2023-03-17T17:19:36.594Z,96524.41
2023-03-17T17:22:04.075Z,96522.59
2023-03-17T17:24:30.403Z,96525.84
2023-03-17T17:26:56.821Z,96531.41
2023-03-17T17:29:23.190Z,96534.03
2023-03-17T17:31:49.671Z,96538.84
2023-03-17T17:34:16.104Z,96552.31
2023-03-17T17:36:42.487Z,96553.00
2023-03-17T17:39:08.945Z,96550.72
2023-03-17T17:41:35.343Z,96563.53
2023-03-17T17:44:01.724Z,96566.91
2023-03-17T17:46:28.209Z,96566.84
2023-03-17T17:48:54.579Z,96577.06
2023-03-17T17:51:20.994Z,96573.25
2023-03-17T17:53:47.404Z,96563.72
2023-03-17T17:56:13.734Z,96568.31
2023-03-17T17:58:40.123Z,96571.25
2023-03-17T18:01:06.450Z,96577.41
2023-03-17T18:03:32.870Z,96586.53
2023-03-17T18:05:59.302Z,96584.06
2023-03-17T18:08:25.658Z,96575.97
2023-03-17T18:10:52.415Z,96577.25
2023-03-17T18:13:18.887Z,96575.06
2023-03-17T18:15:45.360Z,96577.66
2023-03-17T18:18:13.099Z,96580.97
2023-03-17T18:20:39.463Z,96579.81
2023-03-17T18:23:05.825Z,96581.78
2023-03-17T18:25:32.203Z,96584.88
2023-03-17T18:27:58.628Z,96577.00
2023-03-17T18:30:25.006Z,96586.53
2023-03-17T18:32:51.497Z,96581.34
2023-03-17T18:35:17.927Z,96587.94
2023-03-17T18:37:44.307Z,96588.72
2023-03-17T18:40:15.095Z,96589.06
2023-03-17T18:42:46.289Z,96601.56
2023-03-17T18:45:12.645Z,96604.50
2023-03-17T18:47:39.150Z,96605.81
2023-03-17T18:50:05.546Z,96619.25
2023-03-17T18:52:32.012Z,96614.81
2023-03-17T18:54:58.445Z,96622.13
2023-03-17T18:57:24.851Z,96630.72
2023-03-17T18:59:51.250Z,96628.25
2023-03-17T19:02:17.615Z,96641.03
2023-03-17T19:04:44.019Z,96644.56
2023-03-17T19:07:10.382Z,96653.28
2023-03-17T19:09:36.798Z,96655.13
2023-03-17T19:12:03.277Z,96650.88
2023-03-17T19:14:29.720Z,96638.16
2023-03-17T19:16:56.169Z,96646.78
2023-03-17T19:19:22.569Z,96646.22
2023-03-17T19:21:49.001Z,96638.91
2023-03-17T19:24:15.388Z,96636.94
2023-03-17T19:26:41.761Z,96640.44
2023-03-17T19:29:08.092Z,96646.09
2023-03-17T19:31:34.583Z,96652.81
2023-03-17T19:34:00.952Z,96642.84
2023-03-17T19:36:27.358Z,96646.78
2023-03-17T19:38:53.801Z,96659.72
2023-03-17T19:41:20.220Z,96656.69
2023-03-17T19:43:46.592Z,96662.56
2023-03-17T19:46:13.029Z,96661.41
2023-03-17T19:48:39.451Z,96668.03
2023-03-17T19:51:10.258Z,96676.47
2023-03-17T19:53:36.642Z,96679.41
2023-03-17T19:56:03.078Z,96678.41
2023-03-17T19:58:29.577Z,96685.59
2023-03-17T20:00:55.997Z,96691.56
2023-03-17T20:03:24.306Z,96686.41
2023-03-17T20:05:52.485Z,96680.06
2023-03-17T20:08:20.150Z,96677.59
2023-03-17T20:10:46.522Z,96684.75
2023-03-17T20:13:13.039Z,96690.41
2023-03-17T20:15:39.472Z,96684.31
2023-03-17T20:18:06.131Z,96684.78
2023-03-17T20:20:32.831Z,96687.41
2023-03-17T20:22:59.423Z,96704.91
2023-03-17T20:25:25.865Z,96706.69
2023-03-17T20:27:52.283Z,96707.00
2023-03-17T20:30:18.814Z,96701.97
2023-03-17T20:32:45.315Z,96716.78
2023-03-17T20:35:12.810Z,96714.31
2023-03-17T20:37:39.287Z,96711.59
2023-03-17T20:40:05.732Z,96718.41
2023-03-17T20:42:32.219Z,96717.94
2023-03-17T20:44:58.631Z,96713.34
2023-03-17T20:47:25.027Z,96706.09
2023-03-17T20:49:51.473Z,96708.19
2023-03-17T20:52:17.976Z,96713.03
2023-03-17T20:54:46.478Z,96716.53
2023-03-17T20:57:12.920Z,96721.38
2023-03-17T20:59:39.309Z,96727.47
2023-03-17T21:02:05.869Z,96738.03
2023-03-17T21:04:32.353Z,96743.13
2023-03-17T21:07:00.177Z,96742.88
2023-03-17T21:09:26.579Z,96744.88
2023-03-17T21:11:54.252Z,96743.94
2023-03-17T21:14:20.696Z,96757.94
2023-03-17T21:16:47.132Z,96764.66
2023-03-17T21:19:13.621Z,96750.44
2023-03-17T21:21:40.011Z,96753.16
2023-03-17T21:24:06.442Z,96763.72
2023-03-17T21:26:32.793Z,96757.03
2023-03-17T21:28:59.228Z,96759.25
2023-03-17T21:31:25.664Z,96759.50
2023-03-17T21:33:53.123Z,96763.00
2023-03-17T21:36:19.507Z,96769.22
2023-03-17T21:38:45.966Z,96764.53
2023-03-17T21:41:12.404Z,96758.66
2023-03-17T21:43:38.793Z,96753.25
2023-03-17T21:46:05.254Z,96748.94
2023-03-17T21:48:31.767Z,96749.16
2023-03-17T21:50:58.135Z,96753.50
2023-03-17T21:53:24.537Z,96757.59
2023-03-17T21:55:50.967Z,96759.03
2023-03-17T21:58:18.429Z,96773.34
2023-03-17T22:00:46.186Z,96779.91
2023-03-17T22:03:12.775Z,96773.94
2023-03-17T22:05:39.187Z,96782.63
2023-03-17T22:08:05.613Z,96792.47
2023-03-17T22:10:32.418Z,96798.91
2023-03-17T22:12:58.997Z,96800.22
2023-03-17T22:15:25.429Z,96796.56
2023-03-17T22:17:51.881Z,96786.00
2023-03-17T22:20:18.326Z,96790.69
2023-03-17T22:22:44.710Z,96793.81
2023-03-17T22:25:11.132Z,96805.78
2023-03-17T22:27:37.526Z,96809.16
2023-03-17T22:30:03.969Z,96811.47
2023-03-17T22:32:30.402Z,96817.69
2023-03-17T22:34:56.873Z,96816.06
2023-03-17T22:37:23.260Z,96812.16
2023-03-17T22:39:49.711Z,96805.81
2023-03-17T22:42:16.074Z,96805.13
2023-03-17T22:44:42.518Z,96809.72
2023-03-17T22:47:08.932Z,96797.91
2023-03-17T22:49:35.330Z,96804.09
2023-03-17T22:52:01.668Z,96802.59
2023-03-17T22:54:28.043Z,96806.34
2023-03-17T22:56:54.432Z,96808.47
2023-03-17T22:59:20.835Z,96811.16
2023-03-17T23:01:47.209Z,96807.03
2023-03-17T23:04:13.677Z,96805.84
2023-03-17T23:06:40.241Z,96811.00
2023-03-17T23:09:06.630Z,96814.66
2023-03-17T23:11:33.015Z,96825.84
2023-03-17T23:13:59.402Z,96822.75
2023-03-17T23:16:25.843Z,96826.50
2023-03-17T23:18:52.232Z,96829.09
2023-03-17T23:21:18.603Z,96837.41
2023-03-17T23:23:44.960Z,96835.75
2023-03-17T23:26:11.400Z,96836.22
2023-03-17T23:28:37.726Z,96838.75
2023-03-17T23:31:04.130Z,96839.81
2023-03-17T23:33:30.547Z,96840.03
2023-03-17T23:35:56.953Z,96846.72
2023-03-17T23:38:23.346Z,96849.44
2023-03-17T23:40:49.763Z,96847.78
2023-03-17T23:43:16.242Z,96853.16
2023-03-17T23:45:42.651Z,96840.13
2023-03-17T23:48:09.013Z,96853.84
2023-03-17T23:50:35.378Z,96853.63
2023-03-17T23:53:01.735Z,96850.94
2023-03-17T23:55:28.069Z,96848.72
2023-03-17T23:57:54.403Z,96845.72
